Time;durP1;ratioP1;P1;durP2;ratioP2;P2;SDS_P1;SDS_P2;PMS_P1;PMS_P2;Temp;Humidity;BMP_temperature;BMP_pressure;BME280_temperature;BME280_humidity;BME280_pressure;Samples;Min_cycle;Max_cycle;Signal;HPM_P1;HPM_P2
2021/11/02 00:01:18;;;;;;;38.72;26.58;;;9.90;99.90;;;;;;4951223;28;20043;-49
2021/11/02 00:03:44;;;;;;;42.00;25.38;;;10.00;99.90;;;;;;4948019;28;20478;-51
2021/11/02 00:06:10;;;;;;;36.90;24.83;;;9.90;99.90;;;;;;4966084;28;20053;-49
2021/11/02 00:08:36;;;;;;;39.45;24.83;;;9.90;99.90;;;;;;4947627;28;20057;-51
2021/11/02 00:11:03;;;;;;;36.78;25.40;;;9.90;99.90;;;;;;4969853;28;20356;-51
2021/11/02 00:13:31;;;;;;;34.67;25.15;;;10.00;99.90;;;;;;4940771;28;20063;-51
2021/11/02 00:16:00;;;;;;;33.42;23.88;;;10.00;99.90;;;;;;4981245;28;20054;-46
2021/11/02 00:18:26;;;;;;;35.58;24.40;;;9.90;99.90;;;;;;4937148;29;20356;-48
2021/11/02 00:20:59;;;;;;;37.78;24.00;;;9.90;99.90;;;;;;4947405;28;20079;-49
2021/11/02 00:23:25;;;;;;;33.85;23.27;;;9.80;99.90;;;;;;4948306;28;20039;-49
2021/11/02 00:25:51;;;;;;;32.47;23.10;;;9.80;99.90;;;;;;4953904;28;20035;-49
2021/11/02 00:28:17;;;;;;;31.88;20.27;;;9.80;99.90;;;;;;4949538;28;20365;-50
2021/11/02 00:30:42;;;;;;;33.45;23.13;;;9.90;99.90;;;;;;4950671;28;20482;-48
2021/11/02 00:33:08;;;;;;;35.92;23.45;;;9.80;99.90;;;;;;4953755;28;20035;-49
2021/11/02 00:35:34;;;;;;;34.30;22.98;;;9.80;99.90;;;;;;4950131;28;20035;-51
2021/11/02 00:38:00;;;;;;;30.65;22.77;;;9.90;99.90;;;;;;4952856;28;20118;-48
2021/11/02 00:40:26;;;;;;;32.42;21.50;;;9.90;99.90;;;;;;4951016;28;20035;-50
2021/11/02 00:42:54;;;;;;;29.25;19.95;;;9.90;99.90;;;;;;4949344;28;20069;-49
2021/11/02 00:45:28;;;;;;;30.17;19.58;;;9.90;99.90;;;;;;4966036;28;20107;-50
2021/11/02 00:47:55;;;;;;;30.40;21.63;;;9.80;99.90;;;;;;4955096;28;20043;-48
2021/11/02 00:50:21;;;;;;;34.20;21.00;;;9.90;99.90;;;;;;4951518;28;20352;-49
2021/11/02 00:52:47;;;;;;;27.10;18.55;;;10.00;99.90;;;;;;4967781;28;20070;-50
2021/11/02 00:55:13;;;;;;;29.80;20.45;;;10.00;99.90;;;;;;4970928;28;20508;-50
2021/11/02 00:57:39;;;;;;;27.17;18.00;;;10.00;99.90;;;;;;4986406;28;20044;-50
2021/11/02 01:00:07;;;;;;;29.52;18.38;;;9.90;99.90;;;;;;4951968;28;20035;-49
2021/11/02 01:02:33;;;;;;;25.52;19.33;;;9.70;99.90;;;;;;4969163;28;20094;-50
2021/11/02 01:04:59;;;;;;;26.80;19.88;;;9.70;99.90;;;;;;4955547;28;20503;-49
2021/11/02 01:07:25;;;;;;;26.52;18.75;;;9.60;99.90;;;;;;4953120;28;20046;-49
2021/11/02 01:09:50;;;;;;;27.67;19.45;;;9.60;99.90;;;;;;4954887;28;20035;-51
2021/11/02 01:12:16;;;;;;;30.33;21.30;;;9.60;99.90;;;;;;4950173;29;20039;-51
2021/11/02 01:14:43;;;;;;;29.67;21.52;;;9.70;99.90;;;;;;4970591;28;20467;-52
2021/11/02 01:17:09;;;;;;;29.60;20.38;;;9.70;99.90;;;;;;4970887;28;20475;-50
2021/11/02 01:19:35;;;;;;;29.25;19.75;;;9.70;99.90;;;;;;4950011;28;20042;-52
2021/11/02 01:22:00;;;;;;;31.25;20.27;;;9.80;99.90;;;;;;4949198;28;20031;-53
2021/11/02 01:24:26;;;;;;;25.20;19.67;;;9.70;99.90;;;;;;4948733;28;20070;-50
2021/11/02 01:26:53;;;;;;;26.13;18.42;;;9.70;99.90;;;;;;4951801;28;20035;-52
2021/11/02 01:29:19;;;;;;;28.08;19.20;;;9.70;99.90;;;;;;4948410;28;20479;-51
2021/11/02 01:31:45;;;;;;;27.23;17.63;;;9.80;99.90;;;;;;4951282;28;20030;-49
2021/11/02 01:34:12;;;;;;;24.42;19.05;;;9.80;99.90;;;;;;4949299;28;20114;-49
2021/11/02 01:36:39;;;;;;;30.02;19.10;;;9.80;99.90;;;;;;4948917;28;20035;-51
2021/11/02 01:39:07;;;;;;;24.98;16.77;;;9.90;99.90;;;;;;4947914;28;20031;-48
2021/11/02 01:41:34;;;;;;;24.95;15.98;;;9.90;99.90;;;;;;4949848;28;20055;-51
2021/11/02 01:44:00;;;;;;;24.45;17.65;;;9.90;99.90;;;;;;4949868;28;20051;-52
2021/11/02 01:46:32;;;;;;;24.63;17.45;;;9.90;99.90;;;;;;4951762;29;20050;-49
2021/11/02 01:48:59;;;;;;;;;;;10.00;99.90;;;;;;4954952;28;20028;-47
2021/11/02 01:51:27;;;;;;;24.83;18.52;;;10.10;99.90;;;;;;4954871;29;19910;-47
2021/11/02 01:53:53;;;;;;;21.13;16.42;;;10.10;99.90;;;;;;4948744;28;20094;-49
2021/11/02 01:56:21;;;;;;;21.98;15.63;;;10.10;99.90;;;;;;4951806;28;20036;-47
2021/11/02 01:58:52;;;;;;;25.65;16.45;;;10.20;99.90;;;;;;4953822;28;20035;-50
2021/11/02 02:01:35;;;;;;;25.40;17.15;;;10.20;99.90;;;;;;4946222;28;20031;-51
2021/11/02 02:04:07;;;;;;;21.50;15.98;;;10.30;99.90;;;;;;4945823;28;20443;-53
2021/11/02 02:06:41;;;;;;;20.40;15.57;;;10.40;99.90;;;;;;4949078;28;20145;-49
2021/11/02 02:09:20;;;;;;;23.70;15.32;;;10.50;99.90;;;;;;4944925;28;20070;-48
2021/11/02 02:12:05;;;;;;;19.02;15.05;;;10.60;99.90;;;;;;4953599;28;20546;-51
2021/11/02 02:14:39;;;;;;;22.70;14.45;;;10.60;99.90;;;;;;4951914;28;20051;-46
2021/11/02 02:17:15;;;;;;;21.58;15.20;;;10.50;99.90;;;;;;4947536;28;20046;-50
2021/11/02 02:19:55;;;;;;;22.83;15.52;;;10.50;99.90;;;;;;4941888;29;20027;-50
2021/11/02 02:22:53;;;;;;;22.33;15.30;;;10.50;99.90;;;;;;4966718;28;20036;-50
2021/11/02 02:25:31;;;;;;;46.92;35.30;;;10.60;99.90;;;;;;4946238;28;20508;-50
2021/11/02 02:28:27;;;;;;;20.65;15.32;;;10.40;99.90;;;;;;4950610;28;20047;-48
2021/11/02 02:31:05;;;;;;;22.33;16.00;;;10.50;99.90;;;;;;4944463;28;20042;-49
2021/11/02 02:33:41;;;;;;;25.02;15.95;;;10.60;99.90;;;;;;4968039;28;20090;-49
2021/11/02 02:36:08;;;;;;;24.08;15.40;;;10.60;99.90;;;;;;4951938;28;20087;-49
2021/11/02 02:38:38;;;;;;;20.73;16.40;;;10.60;99.90;;;;;;4953259;28;20413;-50
2021/11/02 02:41:04;;;;;;;22.38;16.10;;;10.60;99.90;;;;;;4947051;29;20046;-52
2021/11/02 02:43:34;;;;;;;21.25;15.07;;;10.70;99.90;;;;;;4949304;28;20015;-51
2021/11/02 02:46:00;;;;;;;22.90;15.40;;;10.80;99.90;;;;;;4951488;28;20376;-48
2021/11/02 02:48:27;;;;;;;19.50;15.10;;;10.70;99.90;;;;;;4981211;28;20051;-47
2021/11/02 02:50:57;;;;;;;21.05;16.35;;;10.70;99.90;;;;;;4951018;29;20031;-48
2021/11/02 02:53:24;;;;;;;21.63;15.68;;;10.90;99.90;;;;;;4949434;28;20035;-48
2021/11/02 02:55:53;;;;;;;24.85;15.50;;;10.90;99.90;;;;;;4947133;28;20042;-48
2021/11/02 02:58:19;;;;;;;22.23;16.27;;;11.00;99.90;;;;;;4949557;28;20089;-53
2021/11/02 03:00:46;;;;;;;24.58;16.85;;;11.10;99.90;;;;;;4948507;28;20036;-49
2021/11/02 03:03:13;;;;;;;19.23;14.43;;;11.20;99.90;;;;;;4946727;28;20063;-50
2021/11/02 03:05:40;;;;;;;20.33;15.02;;;11.20;99.90;;;;;;4953753;28;20032;-48
2021/11/02 03:08:07;;;;;;;22.40;15.05;;;11.20;99.90;;;;;;4947710;28;20086;-51
2021/11/02 03:10:33;;;;;;;20.20;12.43;;;11.30;99.90;;;;;;4948494;29;20038;-51
2021/11/02 03:13:07;;;;;;;21.10;14.88;;;11.20;99.90;;;;;;4949383;28;20079;-51
2021/11/02 03:57:17;;;;;;;21.95;15.52;;;11.90;99.90;;;;;;4954908;28;20054;-52
2021/11/02 05:50:55;;;;;;;28.40;19.88;;;10.30;99.90;;;;;;4914362;29;20043;-52
2021/11/02 05:56:18;;;;;;;31.63;23.77;;;10.30;99.90;;;;;;4926640;29;20522;-51
2021/11/02 06:01:36;;;;;;;29.85;20.38;;;10.10;99.90;;;;;;4914692;29;20059;-49
2021/11/02 06:04:32;;;;;;;25.70;19.05;;;10.30;99.90;;;;;;4912206;29;20646;-50
2021/11/02 06:29:51;;;;;;;21.95;16.20;;;10.20;99.90;;;;;;4925601;29;20095;-47
2021/11/02 06:32:28;;;;;;;25.23;18.55;;;10.10;99.90;;;;;;4931863;29;20054;-50
2021/11/02 06:35:34;;;;;;;22.83;14.95;;;10.20;99.90;;;;;;4932887;29;20052;-55
2021/11/02 06:45:42;;;;;;;26.20;17.35;;;10.30;99.90;;;;;;4947053;28;20062;-52
2021/11/02 07:18:57;;;;;;;21.27;13.75;;;10.90;99.90;;;;;;4957449;28;20043;-54
2021/11/02 08:48:02;;;;;;;19.13;15.77;;;16.00;99.90;;;;;;5110469;28;20753;-50
2021/11/02 08:50:36;;;;;;;23.02;18.95;;;17.10;99.90;;;;;;5108221;28;20053;-47
2021/11/02 08:53:04;;;;;;;16.15;14.30;;;18.00;99.90;;;;;;5100193;28;20039;-47
2021/11/02 08:55:30;;;;;;;21.17;19.05;;;18.10;99.90;;;;;;5092995;28;20032;-50
2021/11/02 08:57:56;;;;;;;20.27;14.48;;;18.60;99.90;;;;;;5054773;28;20104;-49
2021/11/02 09:00:23;;;;;;;16.05;13.48;;;18.70;99.90;;;;;;5097334;28;20067;-49
2021/11/02 09:02:53;;;;;;;30.90;19.10;;;18.10;99.90;;;;;;5096492;28;20046;-51
2021/11/02 09:05:30;;;;;;;18.83;15.60;;;19.00;99.90;;;;;;5103229;28;20028;-45
2021/11/02 09:07:59;;;;;;;21.45;15.45;;;18.60;99.90;;;;;;5086962;28;20123;-47
2021/11/02 09:10:25;;;;;;;18.70;15.23;;;17.80;99.90;;;;;;5099186;28;20507;-50
2021/11/02 09:12:54;;;;;;;17.83;15.38;;;16.80;99.90;;;;;;5100620;28;20056;-48
2021/11/02 09:15:26;;;;;;;19.90;14.02;;;16.50;99.90;;;;;;5093998;28;20036;-50
2021/11/02 09:17:54;;;;;;;21.55;15.38;;;15.80;99.90;;;;;;5098723;28;20027;-50
2021/11/02 09:20:21;;;;;;;21.05;10.88;;;15.60;99.90;;;;;;5079162;28;20040;-47
2021/11/02 09:22:48;;;;;;;18.10;13.25;;;15.10;99.90;;;;;;5105092;28;20030;-49
2021/11/02 09:25:15;;;;;;;21.23;19.02;;;15.20;99.90;;;;;;5095357;28;20042;-50
2021/11/02 09:27:46;;;;;;;18.20;13.98;;;15.70;99.90;;;;;;5090302;28;20094;-48
2021/11/02 09:30:13;;;;;;;15.55;11.38;;;16.50;99.90;;;;;;5095775;28;20032;-44
2021/11/02 09:32:42;;;;;;;20.50;14.70;;;15.90;99.90;;;;;;5076185;28;20508;-50
2021/11/02 09:35:09;;;;;;;14.35;10.48;;;15.90;99.90;;;;;;5096396;28;20028;-49
2021/11/02 09:37:36;;;;;;;20.80;14.52;;;15.90;99.90;;;;;;5099365;28;20133;-50
2021/11/02 09:40:29;;;;;;;13.77;9.00;;;15.50;99.90;;;;;;5103355;28;20036;-50
2021/11/02 09:43:15;;;;;;;19.85;17.80;;;15.50;99.90;;;;;;5105920;28;20024;-50
2021/11/02 09:46:00;;;;;;;18.73;15.05;;;16.40;99.90;;;;;;5082539;28;20359;-49
2021/11/02 09:49:07;;;;;;;18.35;14.48;;;16.60;99.90;;;;;;5097044;28;20029;-44
2021/11/02 09:52:10;;;;;;;19.80;14.75;;;17.20;99.90;;;;;;5089112;28;20047;-49
2021/11/02 09:55:01;;;;;;;18.15;14.32;;;16.90;99.90;;;;;;5103044;28;20027;-51
2021/11/02 09:57:53;;;;;;;19.52;17.58;;;17.20;99.90;;;;;;5099657;28;20084;-48
2021/11/02 10:00:44;;;;;;;26.48;24.15;;;17.50;99.90;;;;;;5103442;28;20417;-46
2021/11/02 10:03:12;;;;;;;21.50;19.42;;;19.00;99.90;;;;;;5053076;28;20029;-46
2021/11/02 10:05:53;;;;;;;22.73;20.73;;;20.20;99.90;;;;;;5062632;28;20060;-47
2021/11/02 10:08:44;;;;;;;19.80;17.88;;;21.40;99.90;;;;;;5061672;28;20063;-47
2021/11/02 10:11:43;;;;;;;17.38;15.60;;;22.80;99.90;;;;;;4964601;28;20126;-46
2021/11/02 10:14:28;;;;;;;15.68;13.90;;;;;;;;;;4974095;28;20121;-46
2021/11/02 10:17:11;;;;;;;25.35;16.55;;;23.70;99.90;;;;;;4957294;28;20159;-47
2021/11/02 10:19:58;;;;;;;19.42;17.63;;;23.50;99.60;;;;;;4971364;28;20070;-47
2021/11/02 10:22:23;;;;;;;26.27;18.13;;;22.30;99.90;;;;;;4973240;28;20035;-49
2021/11/02 10:25:05;;;;;;;17.48;15.77;;;;;;;;;;4972751;28;20497;-47
2021/11/02 10:28:11;;;;;;;17.27;15.68;;;24.30;98.10;;;;;;4974317;28;20035;-47
2021/11/02 10:31:06;;;;;;;20.88;19.00;;;25.40;98.30;;;;;;4971965;28;20046;-47
2021/11/02 10:33:37;;;;;;;16.75;15.10;;;26.40;96.60;;;;;;4973237;28;20039;-47
2021/11/02 10:36:19;;;;;;;19.73;17.33;;;26.60;95.30;;;;;;4972792;28;20243;-48
2021/11/02 10:39:02;;;;;;;16.58;14.77;;;27.00;94.70;;;;;;4957611;28;20030;-49
2021/11/02 10:41:35;;;;;;;13.90;12.35;;;27.00;93.10;;;;;;4940481;28;20145;-50
2021/11/02 10:44:32;;;;;;;18.45;15.25;;;26.90;91.50;;;;;;4965317;28;20043;-47
2021/11/02 10:47:21;;;;;;;16.90;15.20;;;27.10;92.40;;;;;;4924329;29;20044;-49
2021/11/02 10:49:55;;;;;;;16.80;12.98;;;;;;;;;;4935918;29;20051;-48
2021/11/02 10:52:27;;;;;;;15.27;13.68;;;27.50;90.60;;;;;;4941606;28;20055;-46
2021/11/02 10:55:23;;;;;;;16.60;14.85;;;27.20;90.30;;;;;;4943079;28;20031;-46
2021/11/02 10:58:14;;;;;;;19.83;16.88;;;27.20;90.70;;;;;;4941065;28;20102;-48
2021/11/02 11:00:41;;;;;;;19.48;14.82;;;27.50;91.10;;;;;;4945456;28;20039;-50
2021/11/02 11:03:09;;;;;;;15.48;13.88;;;27.80;89.10;;;;;;4949515;28;20507;-49
2021/11/02 11:05:36;;;;;;;14.77;13.27;;;27.50;89.90;;;;;;4948601;28;20055;-47
2021/11/02 11:08:04;;;;;;;16.65;13.73;;;27.50;89.80;;;;;;4947625;28;20220;-48
2021/11/02 11:10:31;;;;;;;16.90;13.63;;;27.70;89.30;;;;;;4951940;28;20055;-48
2021/11/02 11:12:59;;;;;;;16.30;14.80;;;28.00;89.30;;;;;;4945501;28;20551;-49
2021/11/02 11:15:35;;;;;;;17.17;15.45;;;27.80;88.60;;;;;;4943955;28;20173;-46
2021/11/02 11:18:07;;;;;;;17.25;13.75;;;27.70;88.00;;;;;;4951920;28;20046;-49
2021/11/02 11:20:37;;;;;;;13.73;12.43;;;;;;;;;;4993774;28;20037;-47
2021/11/02 11:23:10;;;;;;;15.48;13.85;;;28.10;87.80;;;;;;5008260;28;20043;-46
2021/11/02 11:26:07;;;;;;;16.30;14.63;;;28.50;87.70;;;;;;5094071;28;20036;-45
2021/11/02 11:28:40;;;;;;;16.20;14.60;;;27.80;87.00;;;;;;5095043;28;20127;-46
2021/11/02 11:31:07;;;;;;;22.30;18.08;;;27.50;88.60;;;;;;5074580;28;20441;-48
2021/11/02 11:33:33;;;;;;;14.85;13.48;;;26.80;90.10;;;;;;5095834;28;20063;-46
2021/11/02 11:36:07;;;;;;;16.20;14.63;;;27.20;90.00;;;;;;5078492;28;20064;-47
2021/11/02 11:38:37;;;;;;;21.27;15.07;;;27.90;90.20;;;;;;5107932;28;20382;-50
2021/11/02 11:41:09;;;;;;;14.80;11.65;;;28.00;89.70;;;;;;5088659;28;20086;-46
2021/11/02 11:43:36;;;;;;;9.05;8.15;;;27.90;89.70;;;;;;5095252;28;20120;-45
2021/11/02 11:46:03;;;;;;;10.00;7.22;;;27.60;88.10;;;;;;5105172;28;20109;-49
2021/11/02 11:48:31;;;;;;;11.60;10.32;;;27.20;88.00;;;;;;5094032;28;20043;-50
2021/11/02 11:51:02;;;;;;;14.13;11.77;;;27.30;87.40;;;;;;5085446;28;20420;-47
2021/11/02 11:53:30;;;;;;;16.70;11.95;;;27.60;86.90;;;;;;5102191;28;20134;-49
2021/11/02 11:56:09;;;;;;;10.02;8.95;;;27.80;87.50;;;;;;5099875;28;20024;-48
2021/11/02 11:58:47;;;;;;;13.73;8.95;;;26.90;88.80;;;;;;5092964;28;20051;-48
2021/11/02 12:01:22;;;;;;;12.40;9.27;;;25.80;89.80;;;;;;5099935;28;20036;-50
2021/11/02 12:03:58;;;;;;;13.07;10.15;;;25.10;90.70;;;;;;5095051;28;20080;-48
2021/11/02 12:06:41;;;;;;;10.32;7.35;;;25.00;91.10;;;;;;5080317;28;20044;-47
2021/11/02 12:09:16;;;;;;;13.70;8.15;;;24.30;91.70;;;;;;5103496;28;20023;-49
2021/11/02 12:11:43;;;;;;;20.63;10.57;;;24.70;91.60;;;;;;5098542;28;20021;-46
2021/11/02 12:14:22;;;;;;;15.65;9.77;;;24.50;91.40;;;;;;5090897;28;20038;-49
2021/11/02 12:16:50;;;;;;;14.95;9.80;;;24.20;91.70;;;;;;5074513;28;20402;-47
2021/11/02 12:19:24;;;;;;;13.63;9.90;;;24.30;91.70;;;;;;5097039;28;20036;-47
2021/11/02 12:22:02;;;;;;;12.63;8.52;;;24.40;92.50;;;;;;5089296;28;20044;-48
2021/11/02 12:24:33;;;;;;;11.52;8.82;;;24.10;92.20;;;;;;5050567;28;20065;-48
2021/11/02 12:27:10;;;;;;;14.13;10.55;;;23.90;92.60;;;;;;5092736;28;20052;-49
2021/11/02 12:29:37;;;;;;;11.23;7.85;;;24.40;92.70;;;;;;5098203;28;20417;-48
2021/11/02 12:32:07;;;;;;;10.00;7.57;;;24.00;91.80;;;;;;5103847;28;20414;-46
2021/11/02 12:34:57;;;;;;;11.00;8.13;;;23.60;91.90;;;;;;5093304;28;20517;-48
2021/11/02 12:37:24;;;;;;;10.88;8.30;;;23.60;92.50;;;;;;5070949;28;20181;-47
2021/11/02 12:39:51;;;;;;;9.45;8.45;;;22.80;92.90;;;;;;5071017;28;20102;-46
2021/11/02 12:42:23;;;;;;;12.77;9.15;;;;;;;;;;5018710;28;20041;-49
2021/11/02 12:44:51;;;;;;;19.85;14.45;;;22.10;94.40;;;;;;5069191;28;20028;-48
2021/11/02 12:47:22;;;;;;;14.23;9.48;;;21.20;95.30;;;;;;5075080;28;20032;-46
2021/11/02 12:49:58;;;;;;;11.52;9.63;;;20.70;96.70;;;;;;5073816;28;20131;-50
2021/11/02 12:52:29;;;;;;;12.10;10.65;;;20.60;97.20;;;;;;5078312;28;20024;-44
2021/11/02 12:55:05;;;;;;;12.48;7.93;;;20.40;98.10;;;;;;5067923;28;20036;-47
2021/11/02 12:57:38;;;;;;;9.60;7.07;;;19.90;99.10;;;;;;5074203;28;20032;-48
2021/11/02 13:00:08;;;;;;;8.88;6.18;;;19.30;99.90;;;;;;5077959;28;20047;-48
2021/11/02 13:02:42;;;;;;;12.93;8.90;;;18.90;99.90;;;;;;5022669;28;20127;-49
2021/11/02 13:05:23;;;;;;;9.68;8.68;;;19.00;99.90;;;;;;5044717;28;20048;-45
2021/11/02 13:07:55;;;;;;;11.82;8.60;;;19.00;99.90;;;;;;5075123;28;20040;-45
2021/11/02 13:10:21;;;;;;;14.05;10.00;;;19.00;99.90;;;;;;4999331;28;20037;-47
2021/11/02 13:13:02;;;;;;;12.48;10.38;;;18.70;99.90;;;;;;5081297;28;20024;-49
2021/11/02 13:15:28;;;;;;;10.82;9.10;;;18.60;99.90;;;;;;5095420;28;20047;-45
2021/11/02 13:17:56;;;;;;;9.73;8.15;;;18.30;99.90;;;;;;5083960;28;20027;-45
2021/11/02 13:20:30;;;;;;;13.90;10.43;;;18.40;99.90;;;;;;5078665;28;20487;-46
2021/11/02 13:22:56;;;;;;;16.40;10.82;;;18.30;99.90;;;;;;5048710;28;20044;-46
2021/11/02 13:25:25;;;;;;;12.80;10.65;;;18.40;99.90;;;;;;5042461;28;20044;-45
2021/11/02 13:27:55;;;;;;;20.20;10.93;;;18.50;99.90;;;;;;5070457;28;20048;-45
2021/11/02 13:30:41;;;;;;;19.88;11.70;;;18.70;99.90;;;;;;5087431;28;20082;-46
2021/11/02 13:33:08;;;;;;;14.85;11.60;;;18.70;99.90;;;;;;5085873;28;20051;-45
2021/11/02 13:35:45;;;;;;;16.75;11.13;;;18.60;99.90;;;;;;5095469;28;20020;-45
2021/11/02 13:38:28;;;;;;;12.43;10.20;;;18.80;99.90;;;;;;5096017;28;20415;-45
2021/11/02 13:41:05;;;;;;;12.02;9.45;;;18.60;99.90;;;;;;5093167;28;20027;-45
2021/11/02 13:43:34;;;;;;;10.73;9.23;;;18.50;99.90;;;;;;5097427;28;20036;-45
2021/11/02 13:46:01;;;;;;;19.15;12.93;;;18.60;99.90;;;;;;5062697;28;20063;-45
2021/11/02 13:48:27;;;;;;;24.50;16.35;;;19.00;99.90;;;;;;5074826;28;20039;-46
2021/11/02 13:50:54;;;;;;;27.33;16.75;;;19.40;99.90;;;;;;5099046;28;20063;-45
2021/11/02 13:53:24;;;;;;;14.90;10.85;;;19.90;99.90;;;;;;5090529;28;20041;-45
2021/11/02 13:55:51;;;;;;;13.60;9.88;;;20.20;99.90;;;;;;5088820;28;20027;-45
2021/11/02 13:58:17;;;;;;;11.82;8.85;;;20.60;99.90;;;;;;5090447;28;20039;-45
2021/11/02 14:00:44;;;;;;;11.15;8.45;;;21.10;99.90;;;;;;5070994;28;20048;-45
2021/11/02 14:03:16;;;;;;;21.95;13.20;;;21.10;99.90;;;;;;5092792;28;20106;-46
2021/11/02 14:05:45;;;;;;;17.83;12.60;;;21.40;99.90;;;;;;5091594;28;20028;-45
2021/11/02 14:08:11;;;;;;;29.02;17.70;;;21.40;99.90;;;;;;5074148;28;20031;-46
2021/11/02 14:10:37;;;;;;;19.65;14.50;;;21.50;99.90;;;;;;5091645;28;20032;-45
2021/11/02 14:13:03;;;;;;;22.95;17.65;;;21.00;99.90;;;;;;5071342;28;20088;-46
2021/11/02 14:15:31;;;;;;;10.10;7.70;;;21.00;99.90;;;;;;5095025;28;20024;-47
2021/11/02 14:17:57;;;;;;;10.85;7.53;;;21.10;99.90;;;;;;5054131;28;20032;-46
2021/11/02 14:20:49;;;;;;;14.07;9.70;;;21.10;99.90;;;;;;5088144;28;20043;-45
2021/11/02 14:23:30;;;;;;;16.83;11.40;;;20.80;99.90;;;;;;5087677;28;20417;-47
2021/11/02 14:26:19;;;;;;;12.43;8.27;;;20.80;99.90;;;;;;5092396;28;20062;-45
2021/11/02 14:28:50;;;;;;;11.32;8.60;;;20.60;99.90;;;;;;5090093;28;20122;-47
2021/11/02 14:31:37;;;;;;;9.88;7.85;;;20.70;99.90;;;;;;5074667;28;20036;-46
2021/11/02 14:34:04;;;;;;;11.65;8.40;;;20.60;99.90;;;;;;5085280;28;20503;-46
2021/11/02 14:36:43;;;;;;;16.92;11.05;;;20.60;99.90;;;;;;5088829;28;20470;-46
2021/11/02 14:39:13;;;;;;;14.90;10.02;;;20.50;99.90;;;;;;5084160;28;20090;-47
2021/11/02 14:41:49;;;;;;;20.40;14.95;;;20.50;99.90;;;;;;5089792;28;20041;-47
2021/11/02 14:44:17;;;;;;;13.23;11.60;;;20.10;99.90;;;;;;5072077;28;20043;-45
2021/11/02 14:46:59;;;;;;;16.17;13.07;;;19.80;99.90;;;;;;5087621;28;20494;-45
2021/11/02 14:49:30;;;;;;;15.17;13.00;;;19.60;99.90;;;;;;5084325;28;20503;-46
2021/11/02 14:52:10;;;;;;;18.05;14.93;;;19.30;99.90;;;;;;5093426;28;20059;-45
2021/11/02 14:54:44;;;;;;;26.20;15.88;;;19.00;99.90;;;;;;5078758;28;20040;-46
2021/11/02 14:57:19;;;;;;;18.40;14.27;;;18.70;99.90;;;;;;5061835;28;20043;-46
2021/11/02 14:59:51;;;;;;;20.25;15.05;;;18.40;99.90;;;;;;5086717;28;20033;-44
2021/11/02 15:02:31;;;;;;;18.55;15.70;;;18.30;99.90;;;;;;5079450;28;20071;-48
2021/11/02 15:05:04;;;;;;;22.02;16.48;;;18.20;99.90;;;;;;5058227;28;20047;-45
2021/11/02 15:07:35;;;;;;;25.80;18.55;;;18.00;99.90;;;;;;5082678;28;20024;-48
2021/11/02 15:10:09;;;;;;;22.67;18.23;;;17.90;99.90;;;;;;5076611;28;20024;-46
2021/11/02 15:12:37;;;;;;;24.15;17.35;;;17.90;99.90;;;;;;5084439;28;20028;-46
2021/11/02 15:15:04;;;;;;;29.33;20.65;;;17.80;99.90;;;;;;5091832;28;20023;-46
2021/11/02 15:17:30;;;;;;;24.17;17.38;;;;;;;;;;5086526;28;20036;-52
2021/11/02 15:19:56;;;;;;;24.38;17.13;;;17.30;99.90;;;;;;5098995;28;20040;-49
2021/11/02 15:22:24;;;;;;;23.17;18.00;;;17.00;99.90;;;;;;5090751;28;20028;-47
2021/11/02 15:25:03;;;;;;;25.50;21.25;;;16.80;99.90;;;;;;5104753;27;20035;-46
2021/11/02 15:27:32;;;;;;;19.70;15.35;;;16.70;99.90;;;;;;5073773;28;20032;-48
2021/11/02 15:30:04;;;;;;;24.92;20.10;;;;;;;;;;5087344;28;20036;-48
2021/11/02 15:32:38;;;;;;;24.25;18.90;;;;;;;;;;5092799;28;20024;-47
2021/11/02 15:35:07;;;;;;;25.05;21.17;;;15.90;99.90;;;;;;5085770;28;20383;-51
2021/11/02 15:37:37;;;;;;;23.00;19.13;;;15.90;99.90;;;;;;5058781;28;20042;-47
2021/11/02 15:40:16;;;;;;;25.05;19.70;;;15.80;99.90;;;;;;5090793;28;20050;-44
2021/11/02 15:42:44;;;;;;;20.52;15.63;;;15.60;99.90;;;;;;5040191;28;20039;-47
2021/11/02 15:45:28;;;;;;;21.38;19.10;;;15.50;99.90;;;;;;5095656;28;20547;-43
2021/11/02 15:48:01;;;;;;;33.03;19.70;;;15.50;99.90;;;;;;5091801;28;20031;-46
2021/11/02 15:50:27;;;;;;;;;;;15.50;99.90;;;;;;5091850;28;20040;-44
2021/11/02 15:53:01;;;;;;;23.60;18.00;;;15.50;99.90;;;;;;5089810;28;20386;-49
2021/11/02 15:55:28;;;;;;;21.85;18.67;;;15.60;99.90;;;;;;5082567;28;20059;-51
2021/11/02 15:57:57;;;;;;;21.42;18.38;;;15.70;99.90;;;;;;5084810;28;20024;-47
2021/11/02 16:00:27;;;;;;;25.73;19.27;;;15.60;99.90;;;;;;5082266;28;20139;-48
2021/11/02 16:02:53;;;;;;;21.38;17.90;;;15.40;99.90;;;;;;5093902;28;20032;-45
2021/11/02 16:05:28;;;;;;;22.50;18.42;;;15.50;99.90;;;;;;5091991;28;20032;-47
2021/11/02 16:07:56;;;;;;;22.73;18.70;;;15.70;99.90;;;;;;5084552;28;20033;-49
2021/11/02 16:10:32;;;;;;;23.90;19.45;;;15.80;99.90;;;;;;5083229;28;20025;-44
2021/11/02 16:13:07;;;;;;;29.33;22.63;;;15.70;99.90;;;;;;5076026;28;20048;-45
2021/11/02 16:15:38;;;;;;;29.83;23.08;;;15.80;99.90;;;;;;5085424;28;20026;-47
2021/11/02 16:18:15;;;;;;;35.40;25.35;;;16.00;99.90;;;;;;5066703;28;20051;-45
2021/11/02 16:20:42;;;;;;;24.92;21.30;;;16.00;99.90;;;;;;5085372;28;20448;-45
2021/11/02 16:23:11;;;;;;;26.63;19.80;;;16.00;99.90;;;;;;5095092;28;20024;-51
2021/11/02 16:25:49;;;;;;;30.65;22.63;;;15.80;99.90;;;;;;5091003;28;20024;-46
2021/11/02 16:28:20;;;;;;;27.52;23.33;;;15.90;99.90;;;;;;5086195;28;20426;-43
2021/11/02 16:30:53;;;;;;;27.90;22.20;;;16.00;99.90;;;;;;5071149;28;20035;-45
2021/11/02 16:33:33;;;;;;;27.05;21.17;;;15.90;99.90;;;;;;5089633;28;20024;-46
2021/11/02 16:36:37;;;;;;;78.20;49.97;;;16.00;99.90;;;;;;5086823;28;20077;-51
2021/11/02 16:39:03;;;;;;;37.00;26.20;;;16.00;99.90;;;;;;5062661;28;20052;-43
2021/11/02 16:41:44;;;;;;;19.67;17.35;;;15.90;99.90;;;;;;5061786;28;20055;-45
2021/11/02 16:44:13;;;;;;;20.05;16.98;;;15.50;99.90;;;;;;5056724;28;20033;-48
2021/11/02 16:46:53;;;;;;;46.40;28.30;;;15.20;99.90;;;;;;5070164;28;20028;-49
2021/11/02 16:49:24;;;;;;;55.28;34.22;;;15.10;99.90;;;;;;5073204;28;20072;-46
2021/11/02 16:51:52;;;;;;;45.03;31.65;;;14.80;99.90;;;;;;5072345;28;20047;-46
2021/11/02 16:54:21;;;;;;;33.72;26.23;;;14.60;99.90;;;;;;5036950;28;20060;-45
2021/11/02 16:56:57;;;;;;;27.35;23.48;;;14.30;99.90;;;;;;5072776;28;20043;-48
2021/11/02 16:59:38;;;;;;;30.35;24.48;;;14.10;99.90;;;;;;5067114;28;20051;-46
2021/11/02 17:02:26;;;;;;;30.48;25.42;;;14.00;99.90;;;;;;5061169;28;20124;-45
2021/11/02 17:05:01;;;;;;;27.75;24.15;;;13.90;99.90;;;;;;5070374;28;20032;-48
2021/11/02 17:08:02;;;;;;;21.85;19.25;;;13.80;99.90;;;;;;5066714;28;20059;-51
2021/11/02 17:10:38;;;;;;;27.70;22.83;;;13.60;99.90;;;;;;5059756;28;20040;-48
2021/11/02 17:13:16;;;;;;;24.25;21.05;;;13.60;99.90;;;;;;5098836;28;20030;-50
2021/11/02 17:15:47;;;;;;;28.70;23.40;;;13.60;99.90;;;;;;5083974;28;20035;-52
2021/11/02 17:18:18;;;;;;;32.35;26.25;;;13.60;99.90;;;;;;5093216;28;20035;-48
2021/11/02 17:20:59;;;;;;;27.98;24.55;;;13.60;99.90;;;;;;5084767;28;20078;-51
2021/11/02 17:23:25;;;;;;;44.10;30.65;;;13.60;99.90;;;;;;5089289;28;20044;-46
2021/11/02 17:25:51;;;;;;;29.33;26.08;;;13.70;99.90;;;;;;5097801;28;20092;-50
2021/11/02 17:28:19;;;;;;;30.38;25.70;;;13.60;99.90;;;;;;5071245;28;20067;-49
2021/11/02 17:30:45;;;;;;;30.83;25.20;;;13.50;99.90;;;;;;5098359;28;20115;-47
2021/11/02 17:33:12;;;;;;;30.27;25.67;;;13.40;99.90;;;;;;5091153;28;20111;-48
2021/11/02 17:35:38;;;;;;;27.35;24.23;;;13.30;99.90;;;;;;5100036;28;20507;-52
2021/11/02 17:38:05;;;;;;;26.10;22.45;;;13.30;99.90;;;;;;5091093;28;20106;-44
2021/11/02 17:40:32;;;;;;;25.30;22.38;;;13.40;99.90;;;;;;5095088;28;20032;-51
2021/11/02 17:43:00;;;;;;;25.88;22.33;;;13.50;99.90;;;;;;5095691;28;20032;-50
2021/11/02 17:45:28;;;;;;;26.08;21.75;;;13.50;99.90;;;;;;5095047;28;20028;-43
2021/11/02 17:47:56;;;;;;;25.33;22.08;;;13.70;99.90;;;;;;5092741;28;20034;-48
2021/11/02 17:50:25;;;;;;;24.00;21.30;;;13.80;99.90;;;;;;5100860;28;20105;-44
2021/11/02 17:52:52;;;;;;;24.00;21.17;;;13.90;99.90;;;;;;5075757;28;20043;-52
2021/11/02 17:55:17;;;;;;;26.23;20.60;;;13.80;99.90;;;;;;5088489;28;20440;-52
2021/11/02 17:57:45;;;;;;;23.42;20.30;;;13.70;99.90;;;;;;5067270;28;20039;-44
2021/11/02 18:00:14;;;;;;;23.30;19.70;;;13.80;99.90;;;;;;5084281;28;20044;-47
2021/11/02 18:02:40;;;;;;;22.90;17.90;;;13.80;99.90;;;;;;5084435;28;20051;-51
2021/11/02 18:05:08;;;;;;;22.13;19.73;;;13.70;99.90;;;;;;5083125;28;20024;-47
2021/11/02 18:07:34;;;;;;;24.70;20.48;;;13.50;99.90;;;;;;5043647;28;20036;-54